METAR Data
IDs: Format: Raw Decoded Include TAF

Data at: 0248 UTC 25 Feb 2021

ESNS 250220Z AUTO 22007KT 9999 NCD 00/M00 Q1002